Time,TemperatureF,DewpointF,PressureIn,WindDirection,WindDirectionDegrees,WindSpeedMPH,WindSpeedGustMPH,Humidity,HourlyPrecipIn,Conditions,Clouds,dailyrainin,SoftwareType,DateUTC
2013-09-06 00:07:00,73.4,71.6,29.98,SE,135,1.6,-999.0,94,-99.99,,,0.00,Acu-Link.com,2013-09-06 05:07:00,
2013-09-06 00:22:00,73.0,71.2,29.99,NNW,337,0.0,-999.0,94,-99.99,,,0.00,Acu-Link.com,2013-09-06 05:22:00,
2013-09-06 00:38:00,73.0,71.5,29.99,NNE,22,0.0,-999.0,95,-99.99,,,0.00,Acu-Link.com,2013-09-06 05:38:00,
2013-09-06 00:53:00,72.7,71.2,29.98,North,0,1.1,-999.0,95,-99.99,,,0.00,Acu-Link.com,2013-09-06 05:53:00,
2013-09-06 01:08:00,72.7,71.5,29.98,WNW,292,0.0,-999.0,96,-99.99,,,0.00,Acu-Link.com,2013-09-06 06:08:00,
2013-09-06 01:23:00,72.5,71.3,29.98,NW,315,0.0,-999.0,96,-99.99,,,0.00,Acu-Link.com,2013-09-06 06:23:00,
2013-09-06 01:39:00,72.3,71.1,29.98,ENE,67,0.0,-999.0,96,-99.99,,,0.00,Acu-Link.com,2013-09-06 06:39:00,
2013-09-06 01:54:00,72.3,71.1,29.98,ENE,67,0.0,-999.0,96,-99.99,,,0.00,Acu-Link.com,2013-09-06 06:54:00,
2013-09-06 02:09:00,72.3,71.4,29.97,NE,45,1.6,-999.0,97,-99.99,,,0.00,Acu-Link.com,2013-09-06 07:09:00,
2013-09-06 02:25:00,72.1,71.2,29.96,SSE,157,0.0,-999.0,97,-99.99,,,0.00,Acu-Link.com,2013-09-06 07:25:00,
2013-09-06 02:40:00,72.0,71.1,29.96,NNE,22,0.0,-999.0,97,-99.99,,,0.00,Acu-Link.com,2013-09-06 07:40:00,
2013-09-06 02:55:00,71.8,70.9,29.96,NNE,22,0.0,-999.0,97,-99.99,,,0.00,Acu-Link.com,2013-09-06 07:55:00,
2013-09-06 03:12:00,71.8,70.9,29.96,NE,45,1.6,-999.0,97,-99.99,,,0.00,Acu-Link.com,2013-09-06 08:12:00,
2013-09-06 03:29:00,71.8,70.9,29.96,North,0,2.7,-999.0,97,-99.99,,,0.00,Acu-Link.com,2013-09-06 08:29:00,
2013-09-06 03:44:00,71.8,70.9,29.97,NNW,337,2.7,-999.0,97,-99.99,,,0.00,Acu-Link.com,2013-09-06 08:44:00,
2013-09-06 03:59:00,71.8,70.9,29.96,NNW,337,1.6,-999.0,97,-99.99,,,0.00,Acu-Link.com,2013-09-06 08:59:00,
2013-09-06 04:14:00,72.0,71.4,29.96,NNE,22,0.0,-999.0,98,-99.99,,,0.00,Acu-Link.com,2013-09-06 09:14:00,
2013-09-06 04:29:00,72.1,71.5,29.96,SSE,157,0.0,-999.0,98,-99.99,,,0.00,Acu-Link.com,2013-09-06 09:29:00,
2013-09-06 04:44:00,72.1,71.5,29.97,WNW,292,2.2,-999.0,98,-99.99,,,0.00,Acu-Link.com,2013-09-06 09:44:00,
2013-09-06 05:00:00,72.1,71.5,29.96,NNW,337,0.0,-999.0,98,-99.99,,,0.00,Acu-Link.com,2013-09-06 10:00:00,
2013-09-06 05:15:00,72.1,71.5,29.97,East,90,0.0,-999.0,98,-99.99,,,0.00,Acu-Link.com,2013-09-06 10:15:00,
2013-09-06 05:30:00,72.1,71.5,29.97,NNW,337,1.1,-999.0,98,-99.99,,,0.00,Acu-Link.com,2013-09-06 10:30:00,
2013-09-06 05:46:00,72.5,71.9,29.97,South,180,0.0,-999.0,98,-99.99,,,0.00,Acu-Link.com,2013-09-06 10:46:00,
2013-09-06 06:01:00,72.3,71.7,29.97,NNW,337,0.0,-999.0,98,-99.99,,,0.00,Acu-Link.com,2013-09-06 11:01:00,
2013-09-06 06:16:00,72.3,71.7,29.98,NE,45,0.0,-999.0,98,-99.99,,,0.00,Acu-Link.com,2013-09-06 11:16:00,
2013-09-06 06:31:00,72.3,71.7,29.98,NNE,22,2.2,-999.0,98,-99.99,,,0.00,Acu-Link.com,2013-09-06 11:31:00,
2013-09-06 06:47:00,72.1,71.5,29.98,SW,225,0.0,-999.0,98,-99.99,,,0.00,Acu-Link.com,2013-09-06 11:47:00,
2013-09-06 07:02:00,72.0,71.4,29.99,East,90,0.0,-999.0,98,-99.99,,,0.00,Acu-Link.com,2013-09-06 12:02:00,
2013-09-06 07:17:00,72.0,71.4,30.00,NNE,22,0.0,-999.0,98,-99.99,,,0.00,Acu-Link.com,2013-09-06 12:17:00,
2013-09-06 07:33:00,72.9,72.3,30.01,ENE,67,0.0,-999.0,98,-99.99,,,0.00,Acu-Link.com,2013-09-06 12:33:00,
2013-09-06 07:48:00,73.6,73.0,30.01,NNE,22,2.2,-999.0,98,-99.99,,,0.00,Acu-Link.com,2013-09-06 12:48:00,
2013-09-06 08:03:00,74.5,73.6,30.02,NNE,22,0.0,-999.0,97,-99.99,,,0.00,Acu-Link.com,2013-09-06 13:03:00,
2013-09-06 08:19:00,75.7,74.2,30.02,NE,45,0.0,-999.0,95,-99.99,,,0.00,Acu-Link.com,2013-09-06 13:19:00,
2013-09-06 08:34:00,77.4,75.2,30.02,SE,135,1.6,-999.0,93,-99.99,,,0.00,Acu-Link.com,2013-09-06 13:34:00,
2013-09-06 08:49:00,81.5,77.6,30.02,SE,135,0.0,-999.0,88,-99.99,,,0.00,Acu-Link.com,2013-09-06 13:49:00,
2013-09-06 09:04:00,86.7,78.2,30.02,NNE,22,3.1,-999.0,76,-99.99,,,0.00,Acu-Link.com,2013-09-06 14:04:00,
2013-09-06 09:20:00,89.2,79.0,30.02,NW,315,0.0,-999.0,72,-99.99,,,0.00,Acu-Link.com,2013-09-06 14:20:00,
2013-09-06 09:35:00,90.5,78.9,30.02,NNE,22,1.6,-999.0,69,-99.99,,,0.00,Acu-Link.com,2013-09-06 14:35:00,
2013-09-06 09:50:00,90.9,77.9,30.03,SE,135,1.6,-999.0,66,-99.99,,,0.00,Acu-Link.com,2013-09-06 14:50:00,
2013-09-06 10:05:00,95.0,79.4,30.02,West,270,2.2,-999.0,61,-99.99,,,0.00,Acu-Link.com,2013-09-06 15:05:00,
2013-09-06 10:21:00,93.6,78.0,30.03,SE,135,3.8,-999.0,61,-99.99,,,0.00,Acu-Link.com,2013-09-06 15:21:00,
2013-09-06 10:36:00,92.5,77.0,30.02,NW,315,1.6,-999.0,61,-99.99,,,0.00,Acu-Link.com,2013-09-06 15:36:00,
2013-09-06 10:51:00,90.5,76.6,30.03,SE,135,2.7,-999.0,64,-99.99,,,0.00,Acu-Link.com,2013-09-06 15:51:00,
2013-09-06 11:06:00,91.4,76.5,30.02,West,270,2.2,-999.0,62,-99.99,,,0.00,Acu-Link.com,2013-09-06 16:06:00,
2013-09-06 11:22:00,91.0,75.2,30.03,NNE,22,1.1,-999.0,60,-99.99,,,0.00,Acu-Link.com,2013-09-06 16:22:00,
2013-09-06 11:37:00,90.7,75.3,30.01,ESE,112,5.1,-999.0,61,-99.99,,,0.00,Acu-Link.com,2013-09-06 16:37:00,
2013-09-06 11:52:00,92.8,75.3,30.01,NW,315,5.1,-999.0,57,-99.99,,,0.00,Acu-Link.com,2013-09-06 16:52:00,
2013-09-06 12:07:00,93.4,74.8,30.01,SSE,157,5.8,-999.0,55,-99.99,,,0.00,Acu-Link.com,2013-09-06 17:07:00,
2013-09-06 12:23:00,93.0,75.0,30.00,SE,135,2.7,-999.0,56,-99.99,,,0.00,Acu-Link.com,2013-09-06 17:23:00,
2013-09-06 12:38:00,94.5,74.6,30.00,ESE,112,7.4,-999.0,53,-99.99,,,0.00,Acu-Link.com,2013-09-06 17:38:00,
2013-09-06 12:53:00,95.0,75.1,29.99,NE,45,3.8,-999.0,53,-99.99,,,0.00,Acu-Link.com,2013-09-06 17:53:00,
2013-09-06 13:08:00,94.8,74.4,29.99,North,0,2.7,-999.0,52,-99.99,,,0.00,Acu-Link.com,2013-09-06 18:08:00,
2013-09-06 13:24:00,93.9,73.6,29.99,SSE,157,3.8,-999.0,52,-99.99,,,0.00,Acu-Link.com,2013-09-06 18:24:00,
2013-09-06 13:39:00,95.9,74.2,29.97,NNW,337,3.1,-999.0,50,-99.99,,,0.00,Acu-Link.com,2013-09-06 18:39:00,
2013-09-06 13:54:00,95.2,71.7,29.97,South,180,4.3,-999.0,47,-99.99,,,0.00,Acu-Link.com,2013-09-06 18:54:00,
2013-09-06 14:10:00,97.9,74.2,29.96,ESE,112,4.7,-999.0,47,-99.99,,,0.00,Acu-Link.com,2013-09-06 19:10:00,
2013-09-06 14:25:00,94.1,72.0,29.95,ESE,112,4.7,-999.0,49,-99.99,,,0.00,Acu-Link.com,2013-09-06 19:25:00,
2013-09-06 14:40:00,94.3,73.3,29.94,SSW,202,5.8,-999.0,51,-99.99,,,0.00,Acu-Link.com,2013-09-06 19:40:00,
2013-09-06 14:55:00,96.8,72.5,29.94,South,180,1.1,-999.0,46,-99.99,,,0.00,Acu-Link.com,2013-09-06 19:55:00,
2013-09-06 15:10:00,96.1,72.5,29.93,East,90,3.1,-999.0,47,-99.99,,,0.00,Acu-Link.com,2013-09-06 20:10:00,
2013-09-06 15:26:00,93.9,72.4,29.92,ESE,112,2.2,-999.0,50,-99.99,,,0.00,Acu-Link.com,2013-09-06 20:26:00,
2013-09-06 15:41:00,95.2,72.3,29.91,ESE,112,2.2,-999.0,48,-99.99,,,0.00,Acu-Link.com,2013-09-06 20:41:00,
2013-09-06 15:56:00,93.9,73.0,29.91,East,90,2.7,-999.0,51,-99.99,,,0.00,Acu-Link.com,2013-09-06 20:56:00,
2013-09-06 16:11:00,94.3,71.5,29.90,South,180,4.7,-999.0,48,-99.99,,,0.00,Acu-Link.com,2013-09-06 21:11:00,
2013-09-06 16:27:00,98.1,71.7,29.89,South,180,5.1,-999.0,43,-99.99,,,0.00,Acu-Link.com,2013-09-06 21:27:00,
2013-09-06 16:42:00,97.2,70.9,29.90,ENE,67,4.7,-999.0,43,-99.99,,,0.00,Acu-Link.com,2013-09-06 21:42:00,
2013-09-06 16:57:00,92.8,77.4,29.89,NE,45,1.6,-999.0,61,-99.99,,,0.01,Acu-Link.com,2013-09-06 21:57:00,
2013-09-06 17:12:00,86.5,73.3,29.90,WSW,247,4.3,-999.0,65,-99.99,,,0.05,Acu-Link.com,2013-09-06 22:12:00,
2013-09-06 17:28:00,82.9,75.4,29.90,SSE,157,7.4,-999.0,78,-99.99,,,0.05,Acu-Link.com,2013-09-06 22:28:00,
2013-09-06 18:09:00,80.8,75.8,29.91,South,180,0.0,-999.0,85,-99.99,,,0.05,Acu-Link.com,2013-09-06 23:09:00,
2013-09-06 18:25:00,78.1,74.6,29.93,West,270,4.7,-999.0,89,-99.99,,,0.07,Acu-Link.com,2013-09-06 23:25:00,
2013-09-06 18:40:00,77.4,74.5,29.92,WSW,247,5.8,-999.0,91,-99.99,,,0.09,Acu-Link.com,2013-09-06 23:40:00,
2013-09-06 18:55:00,77.0,73.8,29.92,SW,225,5.1,-999.0,90,-99.99,,,0.09,Acu-Link.com,2013-09-06 23:55:00,
2013-09-06 19:10:00,76.6,73.5,29.92,SSW,202,2.2,-999.0,90,-99.99,,,0.09,Acu-Link.com,2013-09-07 00:10:00,
2013-09-06 19:25:00,76.5,73.6,29.92,South,180,1.6,-999.0,91,-99.99,,,0.09,Acu-Link.com,2013-09-07 00:25:00,
2013-09-06 19:41:00,76.3,73.8,29.92,ESE,112,1.6,-999.0,92,-99.99,,,0.09,Acu-Link.com,2013-09-07 00:41:00,
2013-09-06 19:56:00,76.3,74.1,29.93,NNE,22,0.0,-999.0,93,-99.99,,,0.09,Acu-Link.com,2013-09-07 00:56:00,
2013-09-06 20:11:00,76.5,74.3,29.94,SE,135,1.1,-999.0,93,-99.99,,,0.09,Acu-Link.com,2013-09-07 01:11:00,
2013-09-06 20:26:00,77.4,74.5,29.93,East,90,0.0,-999.0,91,-99.99,,,0.09,Acu-Link.com,2013-09-07 01:26:00,
2013-09-06 20:41:00,77.2,74.3,29.93,SSW,202,0.0,-999.0,91,-99.99,,,0.09,Acu-Link.com,2013-09-07 01:41:00,
2013-09-06 20:57:00,76.6,74.5,29.93,NE,45,0.0,-999.0,93,-99.99,,,0.09,Acu-Link.com,2013-09-07 01:57:00,
2013-09-06 21:12:00,76.3,74.4,29.94,West,270,2.7,-999.0,94,-99.99,,,0.09,Acu-Link.com,2013-09-07 02:12:00,
2013-09-06 21:27:00,75.9,74.1,29.93,West,270,0.0,-999.0,94,-99.99,,,0.09,Acu-Link.com,2013-09-07 02:27:00,
2013-09-06 21:42:00,75.4,73.8,29.93,WNW,292,1.1,-999.0,95,-99.99,,,0.09,Acu-Link.com,2013-09-07 02:42:00,
2013-09-06 21:57:00,75.2,73.7,29.93,South,180,1.6,-999.0,95,-99.99,,,0.09,Acu-Link.com,2013-09-07 02:57:00,
2013-09-06 22:12:00,74.8,73.3,29.93,SSE,157,0.0,-999.0,95,-99.99,,,0.09,Acu-Link.com,2013-09-07 03:12:00,
2013-09-06 22:27:00,74.8,73.6,29.93,NNE,22,0.0,-999.0,96,-99.99,,,0.09,Acu-Link.com,2013-09-07 03:27:00,
2013-09-06 22:43:00,74.8,73.6,29.93,SSW,202,0.0,-999.0,96,-99.99,,,0.09,Acu-Link.com,2013-09-07 03:43:00,
2013-09-06 22:58:00,74.5,73.6,29.94,NNW,337,0.0,-999.0,97,-99.99,,,0.09,Acu-Link.com,2013-09-07 03:58:00,
2013-09-06 23:13:00,74.3,73.4,29.93,NNE,22,0.0,-999.0,97,-99.99,,,0.09,Acu-Link.com,2013-09-07 04:13:00,
2013-09-06 23:29:00,74.1,72.9,29.93,North,0,2.2,-999.0,96,-99.99,,,0.09,Acu-Link.com,2013-09-07 04:29:00,
2013-09-06 23:44:00,74.1,73.2,29.93,WNW,292,0.0,-999.0,97,-99.99,,,0.09,Acu-Link.com,2013-09-07 04:44:00,
2013-09-06 23:59:00,73.9,73.0,29.93,NNE,22,0.0,-999.0,97,-99.99,,,0.09,Acu-Link.com,2013-09-07 04:59:00,